TimeMDT,TemperatureF,Dew PointF,Humidity,Sea Level PressureIn,VisibilityMPH,Wind Direction,Wind SpeedMPH,Gust SpeedMPH,PrecipitationIn,Events,Conditions,WindDirDegrees,DateUTC
12:53 AM,63.0,46.0,54,29.81,10.0,East,4.6,-,N/A,,Clear,80,2013-06-18 06:53:00
1:53 AM,60.1,46.9,62,29.81,10.0,Calm,Calm,-,N/A,,Clear,0,2013-06-18 07:53:00
2:53 AM,57.0,45.0,64,29.79,10.0,West,3.5,-,N/A,,Clear,260,2013-06-18 08:53:00
3:53 AM,54.0,44.1,69,29.80,10.0,ENE,4.6,-,N/A,,Clear,60,2013-06-18 09:53:00
4:53 AM,55.9,46.0,69,29.79,10.0,East,3.5,-,N/A,,Clear,100,2013-06-18 10:53:00
5:53 AM,54.0,46.0,75,29.79,10.0,SSE,4.6,-,N/A,,Clear,160,2013-06-18 11:53:00
6:53 AM,54.0,46.0,75,29.81,10.0,Calm,Calm,-,N/A,,Clear,0,2013-06-18 12:53:00
7:53 AM,57.0,46.9,69,29.81,10.0,Calm,Calm,-,N/A,,Clear,0,2013-06-18 13:53:00
8:53 AM,63.0,46.0,54,29.80,10.0,Calm,Calm,-,N/A,,Clear,0,2013-06-18 14:53:00
9:53 AM,69.1,45.0,42,29.80,10.0,Variable,3.5,-,N/A,,Clear,0,2013-06-18 15:53:00
10:53 AM,73.0,46.0,38,29.77,10.0,WNW,4.6,-,N/A,,Clear,300,2013-06-18 16:53:00
11:53 AM,78.1,44.1,30,29.75,10.0,WNW,5.8,-,N/A,,Clear,300,2013-06-18 17:53:00
12:53 PM,81.0,46.0,29,29.71,10.0,NW,10.4,-,N/A,,Clear,320,2013-06-18 18:53:00
1:53 PM,82.0,48.9,31,29.70,10.0,North,11.5,-,N/A,,Clear,10,2013-06-18 19:53:00
2:53 PM,82.9,48.9,31,29.66,10.0,NNE,19.6,26.5,N/A,,Clear,20,2013-06-18 20:53:00
3:53 PM,79.0,48.0,34,29.65,10.0,North,16.1,21.9,N/A,,Partly Cloudy,10,2013-06-18 21:53:00
4:20 PM,77.0,48.2,36,29.73,10.0,NE,9.2,23.0,0.00,Rain-Thunderstorm,Light Rain,40,2013-06-18 22:20:00
4:31 PM,75.2,50.0,41,29.71,10.0,NE,13.8,-,0.00,,Mostly Cloudy,50,2013-06-18 22:31:00
4:53 PM,75.9,51.1,42,29.67,10.0,Variable,3.5,-,0.00,,Scattered Clouds,0,2013-06-18 22:53:00
5:13 PM,75.2,48.2,38,29.73,10.0,Variable,5.8,-,N/A,Thunderstorm,Mostly Cloudy,0,2013-06-18 23:13:00
5:27 PM,75.2,48.2,38,29.72,10.0,WNW,10.4,-,N/A,,Mostly Cloudy,290,2013-06-18 23:27:00
5:53 PM,73.0,54.0,51,29.66,10.0,NW,10.4,-,N/A,,Clear,310,2013-06-18 23:53:00
6:53 PM,73.0,53.1,49,29.68,10.0,NW,11.5,-,N/A,,Clear,310,2013-06-19 00:53:00
7:53 PM,73.0,50.0,44,29.66,10.0,NW,5.8,-,N/A,,Clear,310,2013-06-19 01:53:00
8:53 PM,68.0,54.0,61,29.66,10.0,NW,6.9,-,N/A,,Clear,310,2013-06-19 02:53:00
9:53 PM,66.9,50.0,54,29.67,10.0,NW,10.4,-,N/A,,Clear,310,2013-06-19 03:53:00
10:53 PM,64.9,51.1,61,29.70,10.0,WNW,5.8,-,N/A,,Clear,300,2013-06-19 04:53:00
11:53 PM,66.0,50.0,56,29.67,10.0,NNW,8.1,-,N/A,,Clear,330,2013-06-19 05:53:00